sensor_id;sensor_type;location;lat;lon;timestamp;P1;durP1;ratioP1;P2;durP2;ratioP2
45694;SDS011;31408;45.468;9.124;2023-07-30T00:00:44;2.60;;;1.88;;
45694;SDS011;31408;45.468;9.124;2023-07-30T00:03:10;9.30;;;3.05;;
45694;SDS011;31408;45.468;9.124;2023-07-30T00:05:35;7.25;;;2.35;;
45694;SDS011;31408;45.468;9.124;2023-07-30T00:08:01;3.35;;;2.15;;
45694;SDS011;31408;45.468;9.124;2023-07-30T00:10:26;3.58;;;2.50;;
45694;SDS011;31408;45.468;9.124;2023-07-30T00:12:52;4.53;;;2.17;;
45694;SDS011;31408;45.468;9.124;2023-07-30T00:15:17;6.03;;;2.47;;
45694;SDS011;31408;45.468;9.124;2023-07-30T00:17:43;5.97;;;2.25;;
45694;SDS011;31408;45.468;9.124;2023-07-30T00:20:08;3.75;;;2.03;;
45694;SDS011;31408;45.468;9.124;2023-07-30T00:22:34;6.55;;;2.30;;
45694;SDS011;31408;45.468;9.124;2023-07-30T00:24:59;3.42;;;2.25;;
45694;SDS011;31408;45.468;9.124;2023-07-30T00:27:25;6.57;;;2.97;;
45694;SDS011;31408;45.468;9.124;2023-07-30T00:29:50;5.00;;;2.92;;
45694;SDS011;31408;45.468;9.124;2023-07-30T00:32:16;7.90;;;3.10;;
45694;SDS011;31408;45.468;9.124;2023-07-30T00:34:42;10.32;;;4.03;;
45694;SDS011;31408;45.468;9.124;2023-07-30T00:37:08;10.43;;;3.92;;
45694;SDS011;31408;45.468;9.124;2023-07-30T00:39:33;7.80;;;4.53;;
45694;SDS011;31408;45.468;9.124;2023-07-30T00:41:59;7.80;;;3.85;;
45694;SDS011;31408;45.468;9.124;2023-07-30T00:44:25;8.57;;;3.97;;
45694;SDS011;31408;45.468;9.124;2023-07-30T00:46:50;9.25;;;4.00;;
45694;SDS011;31408;45.468;9.124;2023-07-30T00:49:23;7.97;;;4.05;;
45694;SDS011;31408;45.468;9.124;2023-07-30T00:51:48;6.20;;;3.72;;
45694;SDS011;31408;45.468;9.124;2023-07-30T00:54:14;14.13;;;5.28;;
45694;SDS011;31408;45.468;9.124;2023-07-30T00:56:40;6.50;;;3.78;;
45694;SDS011;31408;45.468;9.124;2023-07-30T00:59:14;9.88;;;4.13;;
45694;SDS011;31408;45.468;9.124;2023-07-30T01:01:39;5.60;;;3.28;;
45694;SDS011;31408;45.468;9.124;2023-07-30T01:04:07;5.68;;;2.85;;
45694;SDS011;31408;45.468;9.124;2023-07-30T01:06:32;3.38;;;2.45;;
45694;SDS011;31408;45.468;9.124;2023-07-30T01:08:58;4.88;;;2.60;;
45694;SDS011;31408;45.468;9.124;2023-07-30T01:11:24;5.80;;;3.17;;
45694;SDS011;31408;45.468;9.124;2023-07-30T01:13:49;4.75;;;2.15;;
45694;SDS011;31408;45.468;9.124;2023-07-30T01:16:15;5.25;;;3.05;;
45694;SDS011;31408;45.468;9.124;2023-07-30T01:18:41;4.20;;;2.90;;
45694;SDS011;31408;45.468;9.124;2023-07-30T01:21:06;8.45;;;3.55;;
45694;SDS011;31408;45.468;9.124;2023-07-30T01:23:32;9.20;;;3.65;;
45694;SDS011;31408;45.468;9.124;2023-07-30T01:26:03;7.30;;;4.07;;
45694;SDS011;31408;45.468;9.124;2023-07-30T01:28:32;7.82;;;4.40;;
45694;SDS011;31408;45.468;9.124;2023-07-30T01:31:02;10.82;;;4.50;;
45694;SDS011;31408;45.468;9.124;2023-07-30T01:33:28;8.30;;;4.15;;
45694;SDS011;31408;45.468;9.124;2023-07-30T01:35:55;12.70;;;5.20;;
45694;SDS011;31408;45.468;9.124;2023-07-30T01:38:21;9.55;;;4.00;;
45694;SDS011;31408;45.468;9.124;2023-07-30T01:40:47;8.23;;;4.65;;
45694;SDS011;31408;45.468;9.124;2023-07-30T01:43:12;6.25;;;3.30;;
45694;SDS011;31408;45.468;9.124;2023-07-30T01:45:38;6.60;;;3.53;;
45694;SDS011;31408;45.468;9.124;2023-07-30T01:48:05;8.85;;;3.83;;
45694;SDS011;31408;45.468;9.124;2023-07-30T01:50:30;9.43;;;4.50;;
45694;SDS011;31408;45.468;9.124;2023-07-30T01:52:56;6.30;;;3.42;;
45694;SDS011;31408;45.468;9.124;2023-07-30T01:55:21;8.38;;;3.63;;
45694;SDS011;31408;45.468;9.124;2023-07-30T01:57:46;8.70;;;3.33;;
45694;SDS011;31408;45.468;9.124;2023-07-30T02:00:13;8.05;;;3.80;;
45694;SDS011;31408;45.468;9.124;2023-07-30T02:02:38;8.73;;;3.65;;
45694;SDS011;31408;45.468;9.124;2023-07-30T02:05:04;4.05;;;3.13;;
45694;SDS011;31408;45.468;9.124;2023-07-30T02:07:30;7.72;;;3.88;;
45694;SDS011;31408;45.468;9.124;2023-07-30T02:09:55;5.85;;;3.72;;
45694;SDS011;31408;45.468;9.124;2023-07-30T02:12:21;5.90;;;3.28;;
45694;SDS011;31408;45.468;9.124;2023-07-30T02:14:47;7.25;;;3.90;;
45694;SDS011;31408;45.468;9.124;2023-07-30T02:17:12;11.13;;;3.88;;
45694;SDS011;31408;45.468;9.124;2023-07-30T02:19:38;7.63;;;3.80;;
45694;SDS011;31408;45.468;9.124;2023-07-30T02:22:03;10.90;;;3.95;;
45694;SDS011;31408;45.468;9.124;2023-07-30T02:24:29;6.82;;;3.80;;
45694;SDS011;31408;45.468;9.124;2023-07-30T02:26:54;6.35;;;3.60;;
45694;SDS011;31408;45.468;9.124;2023-07-30T02:29:20;6.90;;;3.05;;
45694;SDS011;31408;45.468;9.124;2023-07-30T02:31:46;8.35;;;3.22;;
45694;SDS011;31408;45.468;9.124;2023-07-30T02:34:11;10.90;;;3.35;;
45694;SDS011;31408;45.468;9.124;2023-07-30T02:36:36;5.72;;;2.75;;
45694;SDS011;31408;45.468;9.124;2023-07-30T02:39:02;5.80;;;2.55;;
45694;SDS011;31408;45.468;9.124;2023-07-30T02:41:28;3.65;;;2.03;;
45694;SDS011;31408;45.468;9.124;2023-07-30T02:43:53;5.35;;;1.80;;
45694;SDS011;31408;45.468;9.124;2023-07-30T02:46:19;2.47;;;1.92;;
45694;SDS011;31408;45.468;9.124;2023-07-30T02:48:45;3.58;;;1.83;;
45694;SDS011;31408;45.468;9.124;2023-07-30T02:51:11;4.30;;;1.75;;
45694;SDS011;31408;45.468;9.124;2023-07-30T02:53:36;3.03;;;2.05;;
45694;SDS011;31408;45.468;9.124;2023-07-30T02:56:02;5.63;;;2.03;;
45694;SDS011;31408;45.468;9.124;2023-07-30T02:58:27;7.03;;;2.53;;
45694;SDS011;31408;45.468;9.124;2023-07-30T03:00:53;3.53;;;1.75;;
45694;SDS011;31408;45.468;9.124;2023-07-30T03:03:18;2.28;;;1.75;;
45694;SDS011;31408;45.468;9.124;2023-07-30T03:05:44;3.50;;;2.55;;
45694;SDS011;31408;45.468;9.124;2023-07-30T03:08:09;9.35;;;2.55;;
45694;SDS011;31408;45.468;9.124;2023-07-30T03:10:38;3.63;;;2.13;;
45694;SDS011;31408;45.468;9.124;2023-07-30T03:13:03;5.03;;;2.67;;
45694;SDS011;31408;45.468;9.124;2023-07-30T03:15:29;4.65;;;3.00;;
45694;SDS011;31408;45.468;9.124;2023-07-30T03:17:54;4.53;;;2.28;;
45694;SDS011;31408;45.468;9.124;2023-07-30T03:20:20;5.25;;;2.47;;
45694;SDS011;31408;45.468;9.124;2023-07-30T03:22:45;2.70;;;2.13;;
45694;SDS011;31408;45.468;9.124;2023-07-30T03:25:11;2.95;;;1.95;;
45694;SDS011;31408;45.468;9.124;2023-07-30T03:27:36;4.35;;;2.28;;
45694;SDS011;31408;45.468;9.124;2023-07-30T03:30:02;5.32;;;2.92;;
45694;SDS011;31408;45.468;9.124;2023-07-30T03:32:28;4.65;;;2.53;;
45694;SDS011;31408;45.468;9.124;2023-07-30T03:34:53;4.25;;;2.30;;
45694;SDS011;31408;45.468;9.124;2023-07-30T03:37:19;6.18;;;3.40;;
45694;SDS011;31408;45.468;9.124;2023-07-30T03:39:44;5.72;;;2.63;;
45694;SDS011;31408;45.468;9.124;2023-07-30T03:42:10;6.57;;;3.88;;
45694;SDS011;31408;45.468;9.124;2023-07-30T03:44:35;7.28;;;3.53;;
45694;SDS011;31408;45.468;9.124;2023-07-30T03:47:01;5.28;;;3.53;;
45694;SDS011;31408;45.468;9.124;2023-07-30T03:49:26;10.43;;;3.80;;
45694;SDS011;31408;45.468;9.124;2023-07-30T03:51:52;6.22;;;3.15;;
45694;SDS011;31408;45.468;9.124;2023-07-30T03:54:17;9.52;;;4.78;;
45694;SDS011;31408;45.468;9.124;2023-07-30T03:56:43;10.23;;;4.72;;
45694;SDS011;31408;45.468;9.124;2023-07-30T03:59:08;9.23;;;4.45;;
45694;SDS011;31408;45.468;9.124;2023-07-30T04:01:34;15.07;;;5.88;;
45694;SDS011;31408;45.468;9.124;2023-07-30T04:03:59;7.40;;;3.80;;
45694;SDS011;31408;45.468;9.124;2023-07-30T04:06:25;11.68;;;3.67;;
45694;SDS011;31408;45.468;9.124;2023-07-30T04:08:50;5.97;;;3.25;;
45694;SDS011;31408;45.468;9.124;2023-07-30T04:11:16;5.28;;;3.33;;
45694;SDS011;31408;45.468;9.124;2023-07-30T04:13:41;9.15;;;3.65;;
45694;SDS011;31408;45.468;9.124;2023-07-30T04:16:07;7.13;;;4.10;;
45694;SDS011;31408;45.468;9.124;2023-07-30T04:18:32;6.65;;;4.28;;
45694;SDS011;31408;45.468;9.124;2023-07-30T04:20:58;9.73;;;4.15;;
45694;SDS011;31408;45.468;9.124;2023-07-30T04:23:23;6.05;;;3.78;;
45694;SDS011;31408;45.468;9.124;2023-07-30T04:25:49;6.05;;;3.75;;
45694;SDS011;31408;45.468;9.124;2023-07-30T04:28:15;5.15;;;3.47;;
45694;SDS011;31408;45.468;9.124;2023-07-30T04:30:42;4.47;;;3.10;;
45694;SDS011;31408;45.468;9.124;2023-07-30T04:33:07;6.03;;;3.58;;
45694;SDS011;31408;45.468;9.124;2023-07-30T04:35:35;8.63;;;4.03;;
45694;SDS011;31408;45.468;9.124;2023-07-30T04:38:01;7.47;;;3.90;;
45694;SDS011;31408;45.468;9.124;2023-07-30T04:40:26;8.55;;;4.15;;
45694;SDS011;31408;45.468;9.124;2023-07-30T04:42:52;8.35;;;3.78;;
45694;SDS011;31408;45.468;9.124;2023-07-30T04:45:18;6.50;;;3.95;;
45694;SDS011;31408;45.468;9.124;2023-07-30T04:47:46;9.55;;;3.78;;
45694;SDS011;31408;45.468;9.124;2023-07-30T04:50:11;7.05;;;4.22;;
45694;SDS011;31408;45.468;9.124;2023-07-30T04:52:38;13.18;;;5.68;;
45694;SDS011;31408;45.468;9.124;2023-07-30T04:55:03;10.05;;;4.78;;
45694;SDS011;31408;45.468;9.124;2023-07-30T04:57:30;8.65;;;4.55;;
45694;SDS011;31408;45.468;9.124;2023-07-30T04:59:55;8.18;;;4.47;;
45694;SDS011;31408;45.468;9.124;2023-07-30T05:02:21;12.13;;;4.13;;
45694;SDS011;31408;45.468;9.124;2023-07-30T05:04:46;8.32;;;4.82;;
45694;SDS011;31408;45.468;9.124;2023-07-30T05:07:12;11.25;;;5.45;;
45694;SDS011;31408;45.468;9.124;2023-07-30T05:09:37;10.02;;;4.63;;
45694;SDS011;31408;45.468;9.124;2023-07-30T05:12:03;6.25;;;4.53;;
45694;SDS011;31408;45.468;9.124;2023-07-30T05:14:28;9.43;;;4.90;;
45694;SDS011;31408;45.468;9.124;2023-07-30T05:16:54;7.60;;;4.13;;
45694;SDS011;31408;45.468;9.124;2023-07-30T05:19:19;7.18;;;4.03;;
45694;SDS011;31408;45.468;9.124;2023-07-30T05:21:45;9.63;;;4.20;;
45694;SDS011;31408;45.468;9.124;2023-07-30T05:24:11;7.30;;;3.67;;
45694;SDS011;31408;45.468;9.124;2023-07-30T05:26:39;11.82;;;4.60;;
45694;SDS011;31408;45.468;9.124;2023-07-30T05:29:04;8.25;;;4.45;;
45694;SDS011;31408;45.468;9.124;2023-07-30T05:31:29;12.40;;;4.65;;
45694;SDS011;31408;45.468;9.124;2023-07-30T05:33:55;6.95;;;3.70;;
45694;SDS011;31408;45.468;9.124;2023-07-30T05:36:20;8.30;;;4.50;;
45694;SDS011;31408;45.468;9.124;2023-07-30T05:38:46;7.57;;;4.05;;
45694;SDS011;31408;45.468;9.124;2023-07-30T05:41:11;5.28;;;2.88;;
45694;SDS011;31408;45.468;9.124;2023-07-30T05:43:37;8.02;;;3.05;;
45694;SDS011;31408;45.468;9.124;2023-07-30T05:46:02;5.30;;;3.33;;
45694;SDS011;31408;45.468;9.124;2023-07-30T05:48:28;5.53;;;3.13;;
45694;SDS011;31408;45.468;9.124;2023-07-30T05:50:53;3.95;;;2.50;;
45694;SDS011;31408;45.468;9.124;2023-07-30T05:53:18;9.10;;;3.05;;
45694;SDS011;31408;45.468;9.124;2023-07-30T05:55:44;6.32;;;3.25;;
45694;SDS011;31408;45.468;9.124;2023-07-30T05:58:09;5.00;;;2.90;;
45694;SDS011;31408;45.468;9.124;2023-07-30T06:00:35;8.05;;;3.08;;
45694;SDS011;31408;45.468;9.124;2023-07-30T06:03:01;4.75;;;2.55;;
45694;SDS011;31408;45.468;9.124;2023-07-30T06:05:26;4.20;;;2.88;;
45694;SDS011;31408;45.468;9.124;2023-07-30T06:07:52;7.90;;;3.10;;
45694;SDS011;31408;45.468;9.124;2023-07-30T06:10:17;5.68;;;3.40;;
45694;SDS011;31408;45.468;9.124;2023-07-30T06:12:43;4.45;;;2.83;;
45694;SDS011;31408;45.468;9.124;2023-07-30T06:15:09;4.43;;;2.72;;
45694;SDS011;31408;45.468;9.124;2023-07-30T06:17:35;4.93;;;3.10;;
45694;SDS011;31408;45.468;9.124;2023-07-30T06:20:00;4.18;;;2.97;;
45694;SDS011;31408;45.468;9.124;2023-07-30T06:22:26;2.72;;;2.38;;
45694;SDS011;31408;45.468;9.124;2023-07-30T06:24:51;5.32;;;2.83;;
45694;SDS011;31408;45.468;9.124;2023-07-30T06:27:17;3.13;;;2.58;;
45694;SDS011;31408;45.468;9.124;2023-07-30T06:29:47;5.75;;;3.30;;
45694;SDS011;31408;45.468;9.124;2023-07-30T06:32:12;10.25;;;3.30;;
45694;SDS011;31408;45.468;9.124;2023-07-30T06:34:38;4.15;;;2.97;;
45694;SDS011;31408;45.468;9.124;2023-07-30T06:37:03;4.75;;;2.35;;
45694;SDS011;31408;45.468;9.124;2023-07-30T06:39:29;7.38;;;2.95;;
45694;SDS011;31408;45.468;9.124;2023-07-30T06:41:54;3.72;;;2.60;;
45694;SDS011;31408;45.468;9.124;2023-07-30T06:44:20;4.93;;;3.22;;
45694;SDS011;31408;45.468;9.124;2023-07-30T06:46:46;4.90;;;2.72;;
45694;SDS011;31408;45.468;9.124;2023-07-30T06:49:14;6.90;;;2.40;;
45694;SDS011;31408;45.468;9.124;2023-07-30T06:51:39;5.13;;;2.25;;
45694;SDS011;31408;45.468;9.124;2023-07-30T06:54:05;6.90;;;3.15;;
45694;SDS011;31408;45.468;9.124;2023-07-30T06:56:30;4.47;;;2.97;;
45694;SDS011;31408;45.468;9.124;2023-07-30T06:58:56;4.13;;;2.25;;
45694;SDS011;31408;45.468;9.124;2023-07-30T07:01:21;6.78;;;2.67;;
45694;SDS011;31408;45.468;9.124;2023-07-30T07:03:47;4.75;;;2.55;;
45694;SDS011;31408;45.468;9.124;2023-07-30T07:06:12;3.53;;;2.60;;
45694;SDS011;31408;45.468;9.124;2023-07-30T07:08:38;5.70;;;2.70;;
45694;SDS011;31408;45.468;9.124;2023-07-30T07:11:03;3.47;;;2.22;;
45694;SDS011;31408;45.468;9.124;2023-07-30T07:13:29;3.42;;;2.17;;
45694;SDS011;31408;45.468;9.124;2023-07-30T07:15:54;3.10;;;2.15;;
45694;SDS011;31408;45.468;9.124;2023-07-30T07:18:20;3.58;;;2.08;;
45694;SDS011;31408;45.468;9.124;2023-07-30T07:20:45;7.85;;;2.47;;
45694;SDS011;31408;45.468;9.124;2023-07-30T07:23:11;3.80;;;2.65;;
45694;SDS011;31408;45.468;9.124;2023-07-30T07:25:36;3.60;;;2.65;;
45694;SDS011;31408;45.468;9.124;2023-07-30T07:28:02;7.78;;;3.13;;
45694;SDS011;31408;45.468;9.124;2023-07-30T07:30:28;4.30;;;2.45;;
45694;SDS011;31408;45.468;9.124;2023-07-30T07:32:53;4.90;;;2.10;;
45694;SDS011;31408;45.468;9.124;2023-07-30T07:35:20;4.97;;;2.63;;
45694;SDS011;31408;45.468;9.124;2023-07-30T07:37:46;4.25;;;2.45;;
45694;SDS011;31408;45.468;9.124;2023-07-30T07:40:11;8.02;;;3.38;;
45694;SDS011;31408;45.468;9.124;2023-07-30T07:42:40;4.53;;;2.53;;
45694;SDS011;31408;45.468;9.124;2023-07-30T07:45:06;7.72;;;2.53;;
45694;SDS011;31408;45.468;9.124;2023-07-30T07:47:32;4.68;;;2.63;;
45694;SDS011;31408;45.468;9.124;2023-07-30T07:49:57;6.78;;;2.72;;
45694;SDS011;31408;45.468;9.124;2023-07-30T07:52:23;5.75;;;2.88;;
45694;SDS011;31408;45.468;9.124;2023-07-30T07:54:48;5.60;;;2.47;;
45694;SDS011;31408;45.468;9.124;2023-07-30T07:57:14;3.58;;;2.40;;
45694;SDS011;31408;45.468;9.124;2023-07-30T07:59:39;5.65;;;2.63;;
45694;SDS011;31408;45.468;9.124;2023-07-30T08:02:06;8.60;;;3.17;;
45694;SDS011;31408;45.468;9.124;2023-07-30T08:04:32;4.47;;;2.78;;
45694;SDS011;31408;45.468;9.124;2023-07-30T08:06:57;5.95;;;2.83;;
45694;SDS011;31408;45.468;9.124;2023-07-30T08:09:25;3.95;;;2.70;;
45694;SDS011;31408;45.468;9.124;2023-07-30T08:11:50;4.07;;;2.20;;
45694;SDS011;31408;45.468;9.124;2023-07-30T08:14:16;3.90;;;2.85;;
45694;SDS011;31408;45.468;9.124;2023-07-30T08:16:41;5.47;;;2.22;;
45694;SDS011;31408;45.468;9.124;2023-07-30T08:19:07;6.68;;;2.45;;
45694;SDS011;31408;45.468;9.124;2023-07-30T08:21:32;3.15;;;2.15;;
45694;SDS011;31408;45.468;9.124;2023-07-30T08:23:57;4.50;;;2.42;;
45694;SDS011;31408;45.468;9.124;2023-07-30T08:26:23;2.50;;;1.92;;
45694;SDS011;31408;45.468;9.124;2023-07-30T08:28:49;1.92;;;1.70;;
45694;SDS011;31408;45.468;9.124;2023-07-30T08:31:14;2.53;;;1.80;;
45694;SDS011;31408;45.468;9.124;2023-07-30T08:33:39;4.93;;;1.80;;
45694;SDS011;31408;45.468;9.124;2023-07-30T08:36:05;2.15;;;1.90;;
45694;SDS011;31408;45.468;9.124;2023-07-30T08:38:30;2.30;;;1.80;;
45694;SDS011;31408;45.468;9.124;2023-07-30T08:40:56;1.95;;;1.73;;
45694;SDS011;31408;45.468;9.124;2023-07-30T08:43:22;3.85;;;1.83;;
45694;SDS011;31408;45.468;9.124;2023-07-30T08:45:47;3.25;;;2.20;;
45694;SDS011;31408;45.468;9.124;2023-07-30T08:48:13;4.57;;;2.33;;
45694;SDS011;31408;45.468;9.124;2023-07-30T08:50:38;3.80;;;2.17;;
45694;SDS011;31408;45.468;9.124;2023-07-30T08:53:04;3.55;;;1.90;;
45694;SDS011;31408;45.468;9.124;2023-07-30T08:55:32;4.72;;;1.83;;
45694;SDS011;31408;45.468;9.124;2023-07-30T08:57:59;4.25;;;1.95;;
45694;SDS011;31408;45.468;9.124;2023-07-30T09:00:26;3.75;;;2.10;;
45694;SDS011;31408;45.468;9.124;2023-07-30T09:03:00;11.63;;;3.70;;
45694;SDS011;31408;45.468;9.124;2023-07-30T09:05:29;2.60;;;1.70;;
45694;SDS011;31408;45.468;9.124;2023-07-30T09:07:55;4.65;;;1.98;;
45694;SDS011;31408;45.468;9.124;2023-07-30T09:10:21;4.95;;;1.95;;
45694;SDS011;31408;45.468;9.124;2023-07-30T09:12:52;3.47;;;1.75;;
45694;SDS011;31408;45.468;9.124;2023-07-30T09:15:18;3.17;;;1.90;;
45694;SDS011;31408;45.468;9.124;2023-07-30T09:17:44;4.38;;;2.22;;
45694;SDS011;31408;45.468;9.124;2023-07-30T09:20:10;3.33;;;1.80;;
45694;SDS011;31408;45.468;9.124;2023-07-30T09:22:36;4.60;;;2.13;;
45694;SDS011;31408;45.468;9.124;2023-07-30T09:25:04;2.00;;;1.80;;
45694;SDS011;31408;45.468;9.124;2023-07-30T09:27:29;6.32;;;1.90;;
45694;SDS011;31408;45.468;9.124;2023-07-30T09:29:56;4.78;;;1.90;;
45694;SDS011;31408;45.468;9.124;2023-07-30T09:32:26;2.83;;;2.05;;
45694;SDS011;31408;45.468;9.124;2023-07-30T09:34:53;3.45;;;1.73;;
45694;SDS011;31408;45.468;9.124;2023-07-30T09:37:18;3.78;;;2.15;;
45694;SDS011;31408;45.468;9.124;2023-07-30T09:39:44;3.50;;;2.10;;
45694;SDS011;31408;45.468;9.124;2023-07-30T09:42:12;3.50;;;2.17;;
45694;SDS011;31408;45.468;9.124;2023-07-30T09:44:38;3.90;;;1.98;;
45694;SDS011;31408;45.468;9.124;2023-07-30T09:47:09;5.00;;;2.40;;
45694;SDS011;31408;45.468;9.124;2023-07-30T09:49:35;3.40;;;2.28;;
45694;SDS011;31408;45.468;9.124;2023-07-30T09:52:04;7.68;;;2.72;;
45694;SDS011;31408;45.468;9.124;2023-07-30T09:54:33;2.80;;;2.30;;
45694;SDS011;31408;45.468;9.124;2023-07-30T09:56:58;5.05;;;2.80;;
45694;SDS011;31408;45.468;9.124;2023-07-30T09:59:29;4.30;;;2.70;;
45694;SDS011;31408;45.468;9.124;2023-07-30T10:01:55;4.03;;;2.08;;
45694;SDS011;31408;45.468;9.124;2023-07-30T10:04:21;4.90;;;2.35;;
45694;SDS011;31408;45.468;9.124;2023-07-30T10:09:28;5.57;;;2.30;;
45694;SDS011;31408;45.468;9.124;2023-07-30T10:11:56;6.38;;;2.45;;
45694;SDS011;31408;45.468;9.124;2023-07-30T10:14:23;5.57;;;2.40;;
45694;SDS011;31408;45.468;9.124;2023-07-30T10:16:53;2.65;;;2.13;;
45694;SDS011;31408;45.468;9.124;2023-07-30T10:19:26;4.45;;;2.55;;
45694;SDS011;31408;45.468;9.124;2023-07-30T10:24:57;2.45;;;2.15;;
45694;SDS011;31408;45.468;9.124;2023-07-30T10:27:24;5.55;;;2.85;;
45694;SDS011;31408;45.468;9.124;2023-07-30T10:29:53;4.18;;;2.47;;
45694;SDS011;31408;45.468;9.124;2023-07-30T10:40:40;4.35;;;2.25;;
45694;SDS011;31408;45.468;9.124;2023-07-30T10:43:15;5.10;;;2.65;;
45694;SDS011;31408;45.468;9.124;2023-07-30T10:45:50;3.97;;;2.08;;
45694;SDS011;31408;45.468;9.124;2023-07-30T10:48:16;3.92;;;2.20;;
45694;SDS011;31408;45.468;9.124;2023-07-30T10:50:42;3.47;;;2.30;;
45694;SDS011;31408;45.468;9.124;2023-07-30T10:53:13;3.97;;;2.53;;
45694;SDS011;31408;45.468;9.124;2023-07-30T10:55:40;4.10;;;2.45;;
45694;SDS011;31408;45.468;9.124;2023-07-30T10:58:06;4.20;;;3.03;;
45694;SDS011;31408;45.468;9.124;2023-07-30T11:00:31;3.50;;;2.38;;
45694;SDS011;31408;45.468;9.124;2023-07-30T11:02:57;4.97;;;2.22;;
45694;SDS011;31408;45.468;9.124;2023-07-30T11:05:22;5.45;;;3.03;;
45694;SDS011;31408;45.468;9.124;2023-07-30T11:07:55;2.55;;;2.25;;
45694;SDS011;31408;45.468;9.124;2023-07-30T11:10:21;6.82;;;2.90;;
45694;SDS011;31408;45.468;9.124;2023-07-30T11:13:14;3.88;;;1.95;;
45694;SDS011;31408;45.468;9.124;2023-07-30T11:15:40;8.95;;;2.30;;
45694;SDS011;31408;45.468;9.124;2023-07-30T11:18:13;3.28;;;2.03;;
45694;SDS011;31408;45.468;9.124;2023-07-30T11:20:39;4.45;;;2.17;;
45694;SDS011;31408;45.468;9.124;2023-07-30T11:23:20;2.38;;;1.92;;
45694;SDS011;31408;45.468;9.124;2023-07-30T11:25:47;8.18;;;2.83;;
45694;SDS011;31408;45.468;9.124;2023-07-30T11:28:14;4.40;;;2.20;;
45694;SDS011;31408;45.468;9.124;2023-07-30T11:30:54;3.13;;;1.98;;
45694;SDS011;31408;45.468;9.124;2023-07-30T11:33:55;4.95;;;1.98;;
45694;SDS011;31408;45.468;9.124;2023-07-30T11:36:23;2.50;;;2.00;;
45694;SDS011;31408;45.468;9.124;2023-07-30T11:38:49;6.18;;;2.40;;
45694;SDS011;31408;45.468;9.124;2023-07-30T11:41:18;2.95;;;1.92;;
45694;SDS011;31408;45.468;9.124;2023-07-30T11:43:44;2.97;;;2.00;;
45694;SDS011;31408;45.468;9.124;2023-07-30T11:46:11;5.70;;;2.28;;
45694;SDS011;31408;45.468;9.124;2023-07-30T11:48:41;2.53;;;2.13;;
45694;SDS011;31408;45.468;9.124;2023-07-30T11:54:22;4.47;;;1.98;;
45694;SDS011;31408;45.468;9.124;2023-07-30T11:56:54;2.92;;;2.63;;
45694;SDS011;31408;45.468;9.124;2023-07-30T11:59:26;3.90;;;1.95;;
45694;SDS011;31408;45.468;9.124;2023-07-30T12:01:51;2.00;;;1.65;;
45694;SDS011;31408;45.468;9.124;2023-07-30T12:04:17;2.78;;;1.40;;
45694;SDS011;31408;45.468;9.124;2023-07-30T12:06:50;3.17;;;2.42;;
45694;SDS011;31408;45.468;9.124;2023-07-30T12:09:20;4.75;;;2.13;;
45694;SDS011;31408;45.468;9.124;2023-07-30T12:11:49;3.00;;;1.80;;
45694;SDS011;31408;45.468;9.124;2023-07-30T12:14:25;2.88;;;2.28;;
45694;SDS011;31408;45.468;9.124;2023-07-30T12:16:57;4.88;;;2.40;;
45694;SDS011;31408;45.468;9.124;2023-07-30T12:19:26;2.47;;;1.55;;
45694;SDS011;31408;45.468;9.124;2023-07-30T12:21:51;3.58;;;2.00;;
45694;SDS011;31408;45.468;9.124;2023-07-30T12:24:20;2.60;;;2.10;;
45694;SDS011;31408;45.468;9.124;2023-07-30T12:26:47;3.50;;;1.92;;
45694;SDS011;31408;45.468;9.124;2023-07-30T12:29:12;4.63;;;2.17;;
45694;SDS011;31408;45.468;9.124;2023-07-30T12:31:38;2.83;;;1.92;;
45694;SDS011;31408;45.468;9.124;2023-07-30T12:34:03;6.13;;;3.35;;
45694;SDS011;31408;45.468;9.124;2023-07-30T12:36:29;6.13;;;2.50;;
45694;SDS011;31408;45.468;9.124;2023-07-30T12:38:54;3.47;;;2.10;;
45694;SDS011;31408;45.468;9.124;2023-07-30T12:41:20;3.55;;;2.08;;
45694;SDS011;31408;45.468;9.124;2023-07-30T12:43:54;3.45;;;1.90;;
45694;SDS011;31408;45.468;9.124;2023-07-30T12:46:24;3.58;;;2.55;;
45694;SDS011;31408;45.468;9.124;2023-07-30T12:48:55;4.63;;;1.95;;
45694;SDS011;31408;45.468;9.124;2023-07-30T12:51:21;2.83;;;2.10;;
45694;SDS011;31408;45.468;9.124;2023-07-30T12:53:47;3.33;;;1.73;;
45694;SDS011;31408;45.468;9.124;2023-07-30T12:56:12;3.58;;;2.03;;
45694;SDS011;31408;45.468;9.124;2023-07-30T12:58:40;2.85;;;2.10;;
45694;SDS011;31408;45.468;9.124;2023-07-30T13:01:06;5.57;;;2.22;;
45694;SDS011;31408;45.468;9.124;2023-07-30T13:03:31;4.55;;;2.20;;
45694;SDS011;31408;45.468;9.124;2023-07-30T13:05:57;3.90;;;1.90;;
45694;SDS011;31408;45.468;9.124;2023-07-30T13:08:23;3.30;;;2.13;;
45694;SDS011;31408;45.468;9.124;2023-07-30T13:10:48;2.72;;;2.15;;
45694;SDS011;31408;45.468;9.124;2023-07-30T13:13:13;4.88;;;2.13;;
45694;SDS011;31408;45.468;9.124;2023-07-30T13:15:39;2.45;;;1.92;;
45694;SDS011;31408;45.468;9.124;2023-07-30T13:18:04;5.85;;;1.90;;
45694;SDS011;31408;45.468;9.124;2023-07-30T13:20:30;5.25;;;2.55;;
45694;SDS011;31408;45.468;9.124;2023-07-30T13:22:56;5.50;;;2.65;;
45694;SDS011;31408;45.468;9.124;2023-07-30T13:25:22;4.90;;;2.45;;
45694;SDS011;31408;45.468;9.124;2023-07-30T13:27:48;4.13;;;2.22;;
45694;SDS011;31408;45.468;9.124;2023-07-30T13:30:14;5.15;;;2.15;;
45694;SDS011;31408;45.468;9.124;2023-07-30T13:32:40;4.38;;;2.13;;
45694;SDS011;31408;45.468;9.124;2023-07-30T13:35:06;5.28;;;1.83;;
45694;SDS011;31408;45.468;9.124;2023-07-30T13:41:18;3.45;;;2.10;;
45694;SDS011;31408;45.468;9.124;2023-07-30T13:47:00;3.13;;;2.08;;
45694;SDS011;31408;45.468;9.124;2023-07-30T13:49:25;2.70;;;1.85;;
45694;SDS011;31408;45.468;9.124;2023-07-30T13:51:51;4.18;;;2.55;;
45694;SDS011;31408;45.468;9.124;2023-07-30T13:54:16;3.83;;;2.10;;
45694;SDS011;31408;45.468;9.124;2023-07-30T13:56:41;3.42;;;2.35;;
45694;SDS011;31408;45.468;9.124;2023-07-30T13:59:07;2.97;;;2.30;;
45694;SDS011;31408;45.468;9.124;2023-07-30T14:01:33;3.38;;;2.10;;
45694;SDS011;31408;45.468;9.124;2023-07-30T14:03:58;4.00;;;1.98;;
45694;SDS011;31408;45.468;9.124;2023-07-30T14:06:31;2.08;;;1.75;;
45694;SDS011;31408;45.468;9.124;2023-07-30T14:08:58;3.50;;;1.98;;
45694;SDS011;31408;45.468;9.124;2023-07-30T14:11:25;2.75;;;1.83;;
45694;SDS011;31408;45.468;9.124;2023-07-30T14:13:54;3.38;;;1.83;;
45694;SDS011;31408;45.468;9.124;2023-07-30T14:16:25;2.80;;;1.95;;
45694;SDS011;31408;45.468;9.124;2023-07-30T14:18:51;5.07;;;2.20;;
45694;SDS011;31408;45.468;9.124;2023-07-30T14:21:18;3.25;;;2.13;;
45694;SDS011;31408;45.468;9.124;2023-07-30T14:23:43;3.17;;;1.90;;
45694;SDS011;31408;45.468;9.124;2023-07-30T14:26:09;4.55;;;2.00;;
45694;SDS011;31408;45.468;9.124;2023-07-30T14:28:40;2.55;;;1.90;;
45694;SDS011;31408;45.468;9.124;2023-07-30T14:31:05;4.97;;;2.25;;
45694;SDS011;31408;45.468;9.124;2023-07-30T14:33:31;2.75;;;1.80;;
45694;SDS011;31408;45.468;9.124;2023-07-30T14:35:56;2.83;;;1.80;;
45694;SDS011;31408;45.468;9.124;2023-07-30T14:38:22;2.72;;;1.88;;
45694;SDS011;31408;45.468;9.124;2023-07-30T14:40:48;3.10;;;2.17;;
45694;SDS011;31408;45.468;9.124;2023-07-30T14:43:13;5.13;;;2.42;;
45694;SDS011;31408;45.468;9.124;2023-07-30T14:45:39;4.72;;;2.20;;
45694;SDS011;31408;45.468;9.124;2023-07-30T14:48:04;3.38;;;1.85;;
45694;SDS011;31408;45.468;9.124;2023-07-30T14:50:30;4.90;;;2.08;;
45694;SDS011;31408;45.468;9.124;2023-07-30T14:52:55;1.67;;;1.48;;
45694;SDS011;31408;45.468;9.124;2023-07-30T14:55:20;7.97;;;2.42;;
45694;SDS011;31408;45.468;9.124;2023-07-30T14:57:46;4.60;;;2.10;;
45694;SDS011;31408;45.468;9.124;2023-07-30T15:00:12;3.13;;;1.70;;
45694;SDS011;31408;45.468;9.124;2023-07-30T15:02:38;3.53;;;1.90;;
45694;SDS011;31408;45.468;9.124;2023-07-30T15:05:04;2.80;;;1.52;;
45694;SDS011;31408;45.468;9.124;2023-07-30T15:07:30;2.85;;;1.80;;